Time;durP1;ratioP1;P1;durP2;ratioP2;P2;SDS_P1;SDS_P2;PMS_P1;PMS_P2;Temp;Humidity;BMP_temperature;BMP_pressure;BME280_temperature;BME280_humidity;BME280_pressure;Samples;Min_cycle;Max_cycle;Signal;HPM_P1;HPM_P2
2021/09/29 00:00:15;;;;;;;;;;;;;;;22.42;51.76;95835.63;1052043;28;1578;-57
2021/09/29 00:00:46;;;;;;;;;;;;;;;22.41;51.61;95834.03;1052483;28;1064;-57
2021/09/29 00:01:16;;;;;;;;;;;;;;;22.41;51.81;95839.31;1050723;28;1125;-57
2021/09/29 00:01:46;;;;;;;;;;;;;;;22.42;51.67;95833.00;1049431;28;1142;-59
2021/09/29 00:02:17;;;;;;;;;;;;;;;22.42;51.61;95836.41;1052559;28;1263;-57
2021/09/29 00:02:47;;;;;;;;;;;;;;;22.41;51.81;95832.19;1051296;28;1255;-55
2021/09/29 00:03:17;;;;;;;;;;;;;;;22.42;52.09;95838.28;1050933;28;1031;-56
2021/09/29 00:03:47;;;;;;;;;;;;;;;22.41;51.92;95840.13;1049712;28;1060;-58
2021/09/29 00:04:18;;;;;;;;;;;;;;;22.41;51.63;95837.47;1052295;28;1064;-55
2021/09/29 00:04:48;;;;;;;;;;;;;;;22.42;51.59;95836.41;1047942;28;1987;-57
2021/09/29 00:05:18;;;;;;;;;;;;;;;22.42;51.59;95833.75;1048665;28;2035;-56
2021/09/29 00:05:49;;;;;;;;;;;;;;;22.41;51.82;95837.47;1049580;28;1116;-55
2021/09/29 00:06:19;;;;;;;;;;;;;;;22.41;51.74;95837.47;1051471;28;1188;-56
2021/09/29 00:06:49;;;;;;;;;;;;;;;22.41;51.53;95837.47;1051318;28;1818;-57
2021/09/29 00:07:19;;;;;;;;;;;;;;;22.41;51.58;95840.13;1051274;28;1193;-57
2021/09/29 00:07:50;;;;;;;;;;;;;;;22.42;51.99;95833.00;1051183;28;1118;-57
2021/09/29 00:08:20;;;;;;;;;;;;;;;22.41;51.85;95834.03;1053079;28;1130;-57
2021/09/29 00:08:51;;;;;;;;;;;;;;;22.41;51.84;95824.28;1046307;28;2258;-58
2021/09/29 00:09:21;;;;;;;;;;;;;;;22.41;51.46;95837.47;1048363;28;1572;-55
2021/09/29 00:09:51;;;;;;;;;;;;;;;22.41;51.73;95832.19;1050374;28;1061;-57
2021/09/29 00:10:22;;;;;;;;;;;;;;;22.41;51.58;95829.56;1049231;28;1897;-57
2021/09/29 00:10:52;;;;;;;;;;;;;;;22.42;51.59;95833.75;1051138;28;917;-57
2021/09/29 00:11:22;;;;;;;;;;;;;;;22.41;51.55;95826.13;1051412;28;1068;-55
2021/09/29 00:11:54;;;;;;;;;;;;;;;22.41;51.73;95831.41;1052303;28;1123;-55
2021/09/29 00:12:24;;;;;;;;;;;;;;;22.42;51.60;95833.00;1051584;28;1216;-55
2021/09/29 00:12:54;;;;;;;;;;;;;;;22.42;51.96;95833.00;1050149;28;1280;-55
2021/09/29 00:13:25;;;;;;;;;;;;;;;22.41;51.61;95832.19;1052229;28;1592;-56
2021/09/29 00:13:56;;;;;;;;;;;;;;;22.41;51.83;95832.19;1049175;28;1390;-55
2021/09/29 00:14:26;;;;;;;;;;;;;;;22.41;51.71;95819.00;1051499;28;1174;-57
2021/09/29 00:14:56;;;;;;;;;;;;;;;22.41;52.02;95820.84;1052594;28;1068;-57
2021/09/29 00:15:27;;;;;;;;;;;;;;;22.41;51.97;95818.19;1048713;28;2198;-55
2021/09/29 00:15:57;;;;;;;;;;;;;;;22.41;51.96;95820.84;1052547;28;1690;-57
2021/09/29 00:16:27;;;;;;;;;;;;;;;22.41;51.69;95826.91;1052891;28;1194;-57
2021/09/29 00:16:58;;;;;;;;;;;;;;;22.41;51.53;95820.84;1052850;28;1287;-54
2021/09/29 00:17:28;;;;;;;;;;;;;;;22.41;51.40;95820.84;1048491;28;1976;-56
2021/09/29 00:17:58;;;;;;;;;;;;;;;22.42;51.69;95822.41;1049856;28;986;-54
2021/09/29 00:18:29;;;;;;;;;;;;;;;22.40;51.77;95822.69;1052466;28;1133;-55
2021/09/29 00:18:59;;;;;;;;;;;;;;;22.41;51.49;95821.63;1050292;28;1241;-56
2021/09/29 00:19:29;;;;;;;;;;;;;;;22.41;51.70;95816.34;1051447;28;1577;-56
2021/09/29 00:20:00;;;;;;;;;;;;;;;22.40;51.81;95822.69;1052471;28;1060;-54
2021/09/29 00:20:30;;;;;;;;;;;;;;;22.41;51.56;95820.84;1045997;28;2145;-55
2021/09/29 00:21:00;;;;;;;;;;;;;;;22.41;51.53;95820.84;1047112;28;988;-56
2021/09/29 00:21:31;;;;;;;;;;;;;;;22.41;51.45;95829.56;1044089;28;843;-55
2021/09/29 00:22:01;;;;;;;;;;;;;;;22.40;51.92;95822.69;1043996;28;1044;-57
2021/09/29 00:22:32;;;;;;;;;;;;;;;22.41;51.70;95824.28;1048845;28;1058;-57
2021/09/29 00:23:02;;;;;;;;;;;;;;;22.41;51.64;95826.13;1051193;28;1033;-57
2021/09/29 00:23:32;;;;;;;;;;;;;;;22.41;51.69;95829.56;1050487;28;2489;-56
2021/09/29 00:24:03;;;;;;;;;;;;;;;22.41;51.52;95831.41;1051641;28;967;-57
2021/09/29 00:24:33;;;;;;;;;;;;;;;22.42;51.55;95838.28;1052371;28;823;-57
2021/09/29 00:25:04;;;;;;;;;;;;;;;22.41;51.41;95836.69;1052500;28;1052;-57
2021/09/29 00:25:35;;;;;;;;;;;;;;;22.41;51.78;95828.75;1051131;28;2169;-57
2021/09/29 00:26:05;;;;;;;;;;;;;;;22.41;51.87;95831.41;1052642;28;1000;-54
2021/09/29 00:26:35;;;;;;;;;;;;;;;22.41;51.95;95826.13;1053147;28;520;-57
2021/09/29 00:27:06;;;;;;;;;;;;;;;22.40;51.69;95835.88;1050569;28;1169;-56
2021/09/29 00:27:36;;;;;;;;;;;;;;;22.41;51.56;95836.69;1048691;28;1657;-57
2021/09/29 00:28:06;;;;;;;;;;;;;;;22.40;51.65;95829.84;1052029;28;1052;-57
2021/09/29 00:28:36;;;;;;;;;;;;;;;22.40;51.76;95827.19;1051731;28;1181;-57
2021/09/29 00:29:07;;;;;;;;;;;;;;;22.40;51.61;95822.69;1050307;28;1100;-57
2021/09/29 00:29:40;;;;;;;;;;;;;;;22.40;51.88;95821.91;1052957;28;862;-55
2021/09/29 00:30:10;;;;;;;;;;;;;;;22.40;51.90;95817.41;1051711;28;1273;-56
2021/09/29 00:31:03;;;;;;;;;;;;;;;22.41;51.81;95818.19;1048921;28;2210;-53
2021/09/29 00:32:05;;;;;;;;;;;;;;;22.40;51.82;95820.03;1049888;28;1047;-57
2021/09/29 00:32:39;;;;;;;;;;;;;;;22.40;51.92;95821.91;1047471;28;1540;-57
2021/09/29 00:33:14;;;;;;;;;;;;;;;22.39;51.93;95822.97;1050740;28;1549;-55
2021/09/29 00:33:47;;;;;;;;;;;;;;;22.40;51.71;95830.59;1052531;28;1130;-56
2021/09/29 00:34:33;;;;;;;;;;;;;;;22.39;51.75;95826.41;1051972;28;1185;-57
2021/09/29 00:35:03;;;;;;;;;;;;;;;22.39;51.50;95821.13;1051967;28;1072;-54
2021/09/29 00:35:34;;;;;;;;;;;;;;;22.40;51.65;95819.28;1049637;28;2115;-54
2021/09/29 00:36:04;;;;;;;;;;;;;;;22.40;51.50;95821.91;1052216;28;996;-54
2021/09/29 00:36:41;;;;;;;;;;;;;;;22.40;51.43;95827.97;1052753;28;1201;-53
2021/09/29 00:37:12;;;;;;;;;;;;;;;22.40;51.58;95829.84;1050247;28;1252;-55
2021/09/29 00:37:42;;;;;;;;;;;;;;;22.40;51.64;95820.03;1048491;28;1906;-56
2021/09/29 00:38:13;;;;;;;;;;;;;;;22.41;51.48;95826.91;1052265;28;1125;-56
2021/09/29 00:38:43;;;;;;;;;;;;;;;22.40;51.62;95830.59;1049087;28;1100;-55
2021/09/29 00:39:13;;;;;;;;;;;;;;;22.39;51.54;95821.13;1051062;28;1806;-57
2021/09/29 00:39:44;;;;;;;;;;;;;;;22.41;51.63;95824.28;1053000;28;1027;-54
2021/09/29 00:40:15;;;;;;;;;;;;;;;22.40;51.68;95817.41;1051652;28;1329;-57
2021/09/29 00:40:45;;;;;;;;;;;;;;;22.40;51.45;95819.28;1051049;28;2103;-54
2021/09/29 00:41:15;;;;;;;;;;;;;;;22.40;51.76;95820.03;1052887;28;1134;-56
2021/09/29 00:41:47;;;;;;;;;;;;;;;22.39;51.35;95815.84;1051914;28;1086;-52
2021/09/29 00:42:17;;;;;;;;;;;;;;;22.40;51.54;95819.28;1048309;28;1165;-57
2021/09/29 00:42:47;;;;;;;;;;;;;;;22.39;51.67;95823.78;1044786;28;1037;-57
2021/09/29 00:43:18;;;;;;;;;;;;;;;22.39;51.58;95823.78;1048338;28;1182;-56
2021/09/29 00:43:48;;;;;;;;;;;;;;;22.39;51.53;95815.84;1052558;28;1107;-56
2021/09/29 00:44:18;;;;;;;;;;;;;;;22.40;51.57;95817.41;1046348;28;1221;-57
2021/09/29 00:44:50;;;;;;;;;;;;;;;22.40;51.70;95820.03;1052196;28;1119;-55
2021/09/29 00:45:21;;;;;;;;;;;;;;;22.40;51.78;95809.47;1051374;28;1169;-54
2021/09/29 00:45:52;;;;;;;;;;;;;;;22.41;51.33;95818.19;1051100;28;2080;-56
2021/09/29 00:46:22;;;;;;;;;;;;;;;22.40;51.86;95817.41;1052367;28;1157;-56
2021/09/29 00:46:53;;;;;;;;;;;;;;;22.41;51.77;95813.72;1051505;28;1807;-57
2021/09/29 00:47:23;;;;;;;;;;;;;;;22.40;51.90;95812.13;1051338;28;1114;-55
2021/09/29 00:47:54;;;;;;;;;;;;;;;22.40;51.94;95819.28;1048604;28;1689;-55
2021/09/29 00:48:24;;;;;;;;;;;;;;;22.39;51.90;95815.84;1049468;28;1146;-56
2021/09/29 00:48:55;;;;;;;;;;;;;;;22.39;51.50;95818.50;1050123;28;1083;-57
2021/09/29 00:49:25;;;;;;;;;;;;;;;22.40;51.77;95819.28;1051926;28;1166;-57
2021/09/29 00:49:55;;;;;;;;;;;;;;;22.39;51.46;95818.50;1051237;28;1111;-57
2021/09/29 00:50:25;;;;;;;;;;;;;;;22.40;51.63;95820.03;1052072;28;1197;-54
2021/09/29 00:50:56;;;;;;;;;;;;;;;22.40;51.69;95822.69;1050591;28;2136;-55
2021/09/29 00:51:26;;;;;;;;;;;;;;;22.39;51.44;95821.13;1052139;28;1190;-57
2021/09/29 00:51:56;;;;;;;;;;;;;;;22.40;51.35;95821.91;1050763;28;1080;-56
2021/09/29 00:52:27;;;;;;;;;;;;;;;22.40;51.43;95819.28;1051189;28;1214;-55
2021/09/29 00:52:57;;;;;;;;;;;;;;;22.40;51.56;95821.91;1050536;28;1005;-56
2021/09/29 00:53:27;;;;;;;;;;;;;;;22.40;51.89;95816.63;1052281;28;1216;-52
2021/09/29 00:53:58;;;;;;;;;;;;;;;22.40;51.43;95811.34;1052140;28;1089;-55
2021/09/29 00:54:29;;;;;;;;;;;;;;;22.39;51.79;95812.41;1051582;28;1233;-55
2021/09/29 00:54:59;;;;;;;;;;;;;;;22.39;51.84;95818.50;1050702;28;1628;-57
2021/09/29 00:55:30;;;;;;;;;;;;;;;22.40;51.75;95816.63;1052620;28;1190;-52
2021/09/29 00:56:00;;;;;;;;;;;;;;;22.40;51.52;95817.41;1050979;28;2167;-58
2021/09/29 00:56:31;;;;;;;;;;;;;;;22.40;51.64;95814.75;1050726;28;1141;-55
2021/09/29 00:57:01;;;;;;;;;;;;;;;22.40;51.51;95819.28;1051091;28;1283;-54
2021/09/29 00:57:31;;;;;;;;;;;;;;;22.39;51.58;95815.84;1050969;28;1985;-56
2021/09/29 00:58:02;;;;;;;;;;;;;;;22.39;51.63;95813.19;1050207;28;1071;-54
2021/09/29 00:58:32;;;;;;;;;;;;;;;22.40;51.84;95821.91;1051407;28;2415;-57
2021/09/29 00:59:03;;;;;;;;;;;;;;;22.39;51.55;95812.41;1049927;28;2104;-56
2021/09/29 00:59:33;;;;;;;;;;;;;;;22.39;51.69;95815.06;1052499;28;1161;-57
2021/09/29 01:00:04;;;;;;;;;;;;;;;22.38;51.69;95819.53;1051890;28;1083;-55
2021/09/29 01:00:34;;;;;;;;;;;;;;;22.38;51.62;95814.25;1048954;28;2387;-54
2021/09/29 01:01:05;;;;;;;;;;;;;;;22.39;51.46;95818.50;1048316;28;2427;-54
2021/09/29 01:01:35;;;;;;;;;;;;;;;22.39;51.71;95813.19;1048998;28;1130;-55
2021/09/29 01:02:05;;;;;;;;;;;;;;;22.38;51.55;95816.91;1047250;28;1419;-55
2021/09/29 01:02:36;;;;;;;;;;;;;;;22.39;51.73;95818.50;1047408;28;1162;-56
2021/09/29 01:03:06;;;;;;;;;;;;;;;22.39;51.41;95813.19;1050067;28;1031;-57
2021/09/29 01:03:36;;;;;;;;;;;;;;;22.38;51.77;95810.84;1052277;28;1002;-57
2021/09/29 01:04:07;;;;;;;;;;;;;;;22.39;51.67;95801.84;1050652;28;1672;-55
2021/09/29 01:04:37;;;;;;;;;;;;;;;22.39;51.78;95813.19;1045974;28;1331;-52
2021/09/29 01:05:08;;;;;;;;;;;;;;;22.39;51.77;95804.47;1052007;28;1126;-54
2021/09/29 01:05:38;;;;;;;;;;;;;;;22.38;51.61;95808.22;1051439;28;2034;-55
2021/09/29 01:06:11;;;;;;;;;;;;;;;22.38;51.86;95806.34;1046489;28;1502;-55
2021/09/29 01:06:43;;;;;;;;;;;;;;;22.37;51.54;95806.63;1045734;28;972;-56
2021/09/29 01:07:19;;;;;;;;;;;;;;;22.39;51.69;95807.13;1048192;28;1236;-51
2021/09/29 01:07:50;;;;;;;;;;;;;;;22.38;51.80;95806.34;1048902;28;1096;-56
2021/09/29 01:08:24;;;;;;;;;;;;;;;22.38;51.50;95816.13;1052637;28;1182;-55
2021/09/29 01:09:08;;;;;;;;;;;;;;;22.37;51.69;95809.28;1051814;28;1565;-54
2021/09/29 01:10:01;;;;;;;;;;;;;;;22.38;51.78;95813.50;1048475;28;1189;-55
2021/09/29 01:10:34;;;;;;;;;;;;;;;22.39;51.69;95807.13;1048263;28;1554;-57
2021/09/29 01:11:25;;;;;;;;;;;;;;;22.38;51.51;95808.97;1046670;28;2110;-56
2021/09/29 01:12:07;;;;;;;;;;;;;;;22.37;51.36;95809.28;1044089;28;1402;-57
2021/09/29 01:13:03;;;;;;;;;;;;;;;22.38;51.43;95806.34;1048823;28;1194;-57
2021/09/29 01:13:41;;;;;;;;;;;;;;;22.38;51.69;95811.63;1052528;28;949;-56
2021/09/29 01:14:30;;;;;;;;;;;;;;;22.38;51.67;95814.25;1051072;28;1716;-57
2021/09/29 01:15:14;;;;;;;;;;;;;;;22.38;51.80;95810.84;1052920;28;1179;-56
2021/09/29 01:15:47;;;;;;;;;;;;;;;22.38;51.55;95814.25;1045765;28;2131;-54
2021/09/29 01:16:18;;;;;;;;;;;;;;;22.37;51.71;95810.06;1051361;28;1107;-55
2021/09/29 01:16:57;;;;;;;;;;;;;;;22.38;51.48;95816.91;1043009;28;1850;-56
2021/09/29 01:17:48;;;;;;;;;;;;;;;22.38;51.69;95816.91;1044009;28;1914;-54
2021/09/29 01:18:40;;;;;;;;;;;;;;;22.37;51.45;95809.28;1047300;28;1220;-56
2021/09/29 01:19:20;;;;;;;;;;;;;;;22.38;51.78;95819.53;1046904;28;1122;-57
2021/09/29 01:19:50;;;;;;;;;;;;;;;22.38;51.55;95818.78;1048892;28;1076;-53
2021/09/29 01:20:22;;;;;;;;;;;;;;;22.38;51.68;95813.50;1048216;28;1293;-53
2021/09/29 01:20:57;;;;;;;;;;;;;;;22.37;51.64;95815.34;1046399;28;2215;-57
2021/09/29 01:21:48;;;;;;;;;;;;;;;22.38;51.90;95816.91;1043317;28;1061;-55
2021/09/29 01:22:41;;;;;;;;;;;;;;;22.37;51.78;95817.19;1044403;28;1194;-55
2021/09/29 01:23:36;;;;;;;;;;;;;;;22.37;51.70;95817.97;1051942;28;2118;-56
2021/09/29 01:24:11;;;;;;;;;;;;;;;22.38;51.42;95816.13;1050721;28;1017;-56
2021/09/29 01:24:43;;;;;;;;;;;;;;;22.36;51.33;95819.03;1044265;28;1801;-56
2021/09/29 01:25:28;;;;;;;;;;;;;;;22.38;51.43;95824.06;1044734;28;1376;-56
2021/09/29 01:25:58;;;;;;;;;;;;;;;22.37;51.58;95819.84;1046100;28;1894;-57
2021/09/29 01:26:29;;;;;;;;;;;;;;;22.37;51.38;95823.25;1049899;28;2218;-53
2021/09/29 01:27:00;;;;;;;;;;;;;;;22.38;51.57;95830.09;1051059;28;1405;-56
2021/09/29 01:27:31;;;;;;;;;;;;;;;22.37;51.66;95815.34;1048764;28;1238;-53
2021/09/29 01:28:01;;;;;;;;;;;;;;;22.38;51.67;95827.47;1047565;28;2150;-55
2021/09/29 01:28:49;;;;;;;;;;;;;;;22.39;51.37;95825.63;1044783;28;1357;-55
2021/09/29 01:29:19;;;;;;;;;;;;;;;22.38;51.61;95826.69;1045628;28;1170;-55
2021/09/29 01:29:50;;;;;;;;;;;;;;;22.39;51.48;95822.97;1048900;28;1037;-53
2021/09/29 01:30:20;;;;;;;;;;;;;;;22.38;51.41;95826.69;1046138;28;1175;-54
2021/09/29 01:30:51;;;;;;;;;;;;;;;22.39;51.65;95828.25;1042355;28;1124;-55
2021/09/29 01:31:22;;;;;;;;;;;;;;;22.36;51.14;95826.97;1048882;28;1753;-54
2021/09/29 01:31:52;;;;;;;;;;;;;;;22.36;51.29;95824.31;1040360;28;1416;-57
2021/09/29 01:32:22;;;;;;;;;;;;;;;22.38;51.49;95826.69;1044390;28;1126;-54
2021/09/29 01:32:53;;;;;;;;;;;;;;;22.38;51.47;95829.34;1047692;28;1033;-52
2021/09/29 01:33:23;;;;;;;;;;;;;;;22.36;51.58;95829.59;1048053;28;1595;-56
2021/09/29 01:33:54;;;;;;;;;;;;;;;22.38;51.68;95821.41;1050929;28;2680;-56
2021/09/29 01:34:24;;;;;;;;;;;;;;;22.38;51.72;95827.47;1052329;28;1162;-55
2021/09/29 01:34:54;;;;;;;;;;;;;;;22.38;51.55;95821.41;1047845;28;1053;-53
2021/09/29 01:35:25;;;;;;;;;;;;;;;22.38;51.51;95824.81;1044017;28;1186;-56
2021/09/29 01:35:55;;;;;;;;;;;;;;;22.38;51.56;95830.09;1048713;28;1111;-56
2021/09/29 01:36:25;;;;;;;;;;;;;;;22.38;51.37;95826.69;1048556;28;1202;-57
2021/09/29 01:36:56;;;;;;;;;;;;;;;22.36;51.29;95824.31;1050777;28;1335;-56
2021/09/29 01:37:26;;;;;;;;;;;;;;;22.37;51.36;95825.91;1052321;28;1233;-55
2021/09/29 01:37:56;;;;;;;;;;;;;;;22.38;51.44;95829.34;1052603;28;1905;-55
2021/09/29 01:38:27;;;;;;;;;;;;;;;22.36;51.29;95819.03;1045573;28;1114;-54
2021/09/29 01:38:57;;;;;;;;;;;;;;;22.38;51.46;95831.97;1044247;28;2180;-56
2021/09/29 01:39:28;;;;;;;;;;;;;;;22.37;51.60;95833.81;1042716;28;2148;-55
2021/09/29 01:39:58;;;;;;;;;;;;;;;22.38;51.26;95831.97;1043779;28;1465;-53
2021/09/29 01:40:28;;;;;;;;;;;;;;;22.37;51.43;95833.81;1048891;28;1181;-52
2021/09/29 01:40:59;;;;;;;;;;;;;;;22.37;51.45;95833.81;1047226;28;1095;-55
2021/09/29 01:41:30;;;;;;;;;;;;;;;22.38;51.50;95831.97;1051608;28;1167;-57
2021/09/29 01:42:00;;;;;;;;;;;;;;;22.38;51.55;95838.03;1051794;28;1052;-55
2021/09/29 01:42:31;;;;;;;;;;;;;;;22.37;51.29;95833.81;1052139;28;1275;-56
2021/09/29 01:43:01;;;;;;;;;;;;;;;22.36;51.43;95834.88;1050700;28;1068;-56
2021/09/29 01:43:32;;;;;;;;;;;;;;;22.36;51.07;95834.88;1053528;28;1012;-57
2021/09/29 01:44:02;;;;;;;;;;;;;;;22.38;51.04;95838.03;1051812;28;2486;-56
2021/09/29 01:44:33;;;;;;;;;;;;;;;22.38;51.55;95840.66;1052712;28;1208;-57
2021/09/29 01:45:03;;;;;;;;;;;;;;;22.36;51.28;95848.09;1052119;28;941;-54
2021/09/29 01:45:35;;;;;;;;;;;;;;;22.38;51.21;95847.84;1051588;28;1221;-56
2021/09/29 01:46:06;;;;;;;;;;;;;;;22.37;51.11;95840.97;1052655;28;1060;-54
2021/09/29 01:46:38;;;;;;;;;;;;;;;22.36;51.44;95845.44;1049836;28;1162;-57
2021/09/29 01:47:09;;;;;;;;;;;;;;;22.38;51.63;95842.53;1051967;28;1291;-56
2021/09/29 01:47:40;;;;;;;;;;;;;;;22.37;51.46;95847.03;1052331;28;823;-53
2021/09/29 01:48:10;;;;;;;;;;;;;;;22.37;51.27;95849.69;1050345;28;1754;-57
2021/09/29 01:49:01;;;;;;;;;;;;;;;22.38;51.30;95842.53;1051595;28;2243;-57
2021/09/29 01:49:50;;;;;;;;;;;;;;;22.37;51.31;95840.97;1052694;28;1168;-57
2021/09/29 01:50:22;;;;;;;;;;;;;;;22.37;51.38;95847.03;1049217;28;2406;-56
2021/09/29 01:50:58;;;;;;;;;;;;;;;22.36;51.17;95842.81;1050686;28;1033;-54
2021/09/29 01:51:28;;;;;;;;;;;;;;;22.37;51.37;95847.03;1049946;28;1118;-57
2021/09/29 01:51:59;;;;;;;;;;;;;;;22.36;51.36;95837.53;1048307;28;1221;-57
2021/09/29 01:52:31;;;;;;;;;;;;;;;22.37;51.45;95847.03;1048642;28;1147;-56
2021/09/29 01:53:01;;;;;;;;;;;;;;;22.38;51.44;95839.91;1046124;28;1044;-57
2021/09/29 01:53:33;;;;;;;;;;;;;;;22.37;51.42;95835.69;1049049;28;1094;-54
2021/09/29 01:54:03;;;;;;;;;;;;;;;22.38;51.07;95839.91;1049735;28;2455;-55
2021/09/29 01:54:36;;;;;;;;;;;;;;;22.36;51.27;95840.16;1051057;28;1098;-57
2021/09/29 01:55:06;;;;;;;;;;;;;;;22.36;51.34;95837.53;1052348;28;1123;-57
2021/09/29 01:55:36;;;;;;;;;;;;;;;22.36;51.08;95840.16;1050845;28;1266;-57
2021/09/29 01:56:07;;;;;;;;;;;;;;;22.36;51.12;95842.03;1051942;28;1096;-51
2021/09/29 01:56:37;;;;;;;;;;;;;;;22.36;51.21;95845.44;1049110;28;1219;-56
2021/09/29 01:57:09;;;;;;;;;;;;;;;22.36;51.46;95834.13;1047668;28;1208;-57
2021/09/29 01:57:39;;;;;;;;;;;;;;;22.36;51.07;95840.16;1040697;28;1965;-56
2021/09/29 01:58:09;;;;;;;;;;;;;;;22.36;51.24;95844.69;1044739;28;1242;-54
2021/09/29 01:58:40;;;;;;;;;;;;;;;22.35;51.20;95838.59;1045503;28;1531;-56
2021/09/29 01:59:10;;;;;;;;;;;;;;;22.35;51.35;95837.81;1041597;28;2492;-52
2021/09/29 01:59:41;;;;;;;;;;;;;;;22.36;51.49;95836.75;1044453;28;1134;-56
2021/09/29 02:00:12;;;;;;;;;;;;;;;22.35;51.35;95838.59;1046678;28;2237;-53
2021/09/29 02:00:42;;;;;;;;;;;;;;;22.36;51.41;95849.97;1045136;28;1028;-55
2021/09/29 02:01:13;;;;;;;;;;;;;;;22.36;51.14;95839.41;1050850;28;1154;-56
2021/09/29 02:01:43;;;;;;;;;;;;;;;22.36;51.27;95845.44;1052743;28;1064;-53
2021/09/29 02:02:14;;;;;;;;;;;;;;;22.35;51.38;95843.88;1050673;28;1236;-55
2021/09/29 02:02:44;;;;;;;;;;;;;;;22.36;51.37;95848.09;1051224;28;1102;-57
2021/09/29 02:03:21;;;;;;;;;;;;;;;22.36;51.24;95856.00;1053484;28;1192;-54
2021/09/29 02:03:51;;;;;;;;;;;;;;;22.35;51.07;95843.88;1049016;28;2208;-51
2021/09/29 02:04:21;;;;;;;;;;;;;;;22.34;51.26;95839.66;1051231;28;1087;-52
2021/09/29 02:04:52;;;;;;;;;;;;;;;22.35;51.39;95843.88;1050299;28;1525;-56
2021/09/29 02:05:26;;;;;;;;;;;;;;;22.35;51.37;95849.16;1052996;28;1134;-53
2021/09/29 02:05:56;;;;;;;;;;;;;;;22.35;51.16;95845.75;1045630;28;1034;-50
2021/09/29 02:06:27;;;;;;;;;;;;;;;22.36;51.42;95847.31;1048885;28;1131;-52
2021/09/29 02:06:57;;;;;;;;;;;;;;;22.35;51.09;95854.44;1051145;28;1687;-57
2021/09/29 02:07:28;;;;;;;;;;;;;;;22.35;51.57;95849.16;1049916;28;1321;-57
2021/09/29 02:07:59;;;;;;;;;;;;;;;22.35;51.37;95848.38;1050407;28;1641;-54
2021/09/29 02:08:29;;;;;;;;;;;;;;;22.35;51.54;95843.88;1048911;28;1261;-54
2021/09/29 02:08:59;;;;;;;;;;;;;;;22.35;51.16;95846.53;1046081;28;2142;-51
2021/09/29 02:09:30;;;;;;;;;;;;;;;22.35;51.51;95859.72;1045707;28;1186;-57
2021/09/29 02:10:00;;;;;;;;;;;;;;;22.35;50.93;95853.66;1047193;28;1289;-52
2021/09/29 02:10:30;;;;;;;;;;;;;;;22.35;51.36;95856.31;1048203;28;1356;-50
2021/09/29 02:11:01;;;;;;;;;;;;;;;22.34;51.40;95852.88;1045547;28;1021;-56
2021/09/29 02:11:31;;;;;;;;;;;;;;;22.34;51.36;95852.09;1048813;28;812;-57
2021/09/29 02:12:01;;;;;;;;;;;;;;;22.35;51.38;95853.66;1052468;28;1098;-56
2021/09/29 02:12:32;;;;;;;;;;;;;;;22.34;51.29;95855.50;1049963;28;1141;-56
2021/09/29 02:13:03;;;;;;;;;;;;;;;22.34;51.39;95857.38;1053115;28;1071;-54
2021/09/29 02:13:33;;;;;;;;;;;;;;;22.34;51.26;95863.44;1053423;28;1032;-55
2021/09/29 02:14:04;;;;;;;;;;;;;;;22.34;51.37;95855.50;1050645;28;2064;-55
2021/09/29 02:14:35;;;;;;;;;;;;;;;22.35;51.11;95848.38;1048652;28;1022;-51
2021/09/29 02:15:05;;;;;;;;;;;;;;;22.35;51.25;95848.38;1051695;28;1509;-53
2021/09/29 02:15:35;;;;;;;;;;;;;;;22.34;51.26;95850.22;1052306;28;1125;-53
2021/09/29 02:16:06;;;;;;;;;;;;;;;22.34;51.29;95844.19;1052369;28;1052;-53
2021/09/29 02:16:36;;;;;;;;;;;;;;;22.35;51.21;95843.09;1052160;28;2154;-54
2021/09/29 02:17:06;;;;;;;;;;;;;;;22.34;51.07;95847.59;1049718;28;2073;-57
2021/09/29 02:17:37;;;;;;;;;;;;;;;22.34;51.44;95847.59;1047767;28;2128;-54
2021/09/29 02:18:07;;;;;;;;;;;;;;;22.33;51.38;95848.66;1052316;28;1080;-52
2021/09/29 02:18:37;;;;;;;;;;;;;;;22.34;51.24;95847.59;1049049;28;1126;-53
2021/09/29 02:19:08;;;;;;;;;;;;;;;22.33;51.44;95851.31;1051251;28;2299;-54
2021/09/29 02:19:38;;;;;;;;;;;;;;;22.33;51.31;95861.88;1051805;28;1614;-56
2021/09/29 02:20:09;;;;;;;;;;;;;;;22.34;51.16;95860.78;1046311;28;997;-55
2021/09/29 02:20:40;;;;;;;;;;;;;;;22.34;51.26;95862.66;1051072;28;1141;-55
2021/09/29 02:21:11;;;;;;;;;;;;;;;22.34;51.22;95863.44;1050329;28;1252;-54
2021/09/29 02:21:42;;;;;;;;;;;;;;;22.34;51.02;95862.66;1050405;28;1149;-55
2021/09/29 02:22:16;;;;;;;;;;;;;;;22.34;51.42;95862.66;1047651;28;1454;-55
2021/09/29 02:22:46;;;;;;;;;;;;;;;22.35;51.00;95872.16;1045038;28;1052;-54
2021/09/29 02:23:16;;;;;;;;;;;;;;;22.34;51.12;95867.94;1047078;28;1209;-54
2021/09/29 02:23:46;;;;;;;;;;;;;;;22.34;51.09;95871.34;1050069;28;2472;-56
2021/09/29 02:24:17;;;;;;;;;;;;;;;22.33;50.97;95864.50;1051815;28;2969;-55
2021/09/29 02:24:47;;;;;;;;;;;;;;;22.34;50.92;95871.34;1052283;28;1158;-55
2021/09/29 02:25:17;;;;;;;;;;;;;;;22.34;51.26;95867.94;1053320;28;1063;-55
2021/09/29 02:25:48;;;;;;;;;;;;;;;22.34;51.08;95865.31;1051643;28;1068;-56
2021/09/29 02:26:18;;;;;;;;;;;;;;;22.34;51.17;95868.72;1051689;28;1424;-54
2021/09/29 02:26:49;;;;;;;;;;;;;;;22.33;51.46;95864.50;1049961;28;1352;-54
2021/09/29 02:27:19;;;;;;;;;;;;;;;22.34;51.14;95868.72;1051634;28;1218;-54
2021/09/29 02:27:49;;;;;;;;;;;;;;;22.34;51.20;95866.06;1050017;28;1096;-55
2021/09/29 02:28:19;;;;;;;;;;;;;;;22.33;51.32;95864.50;1051961;28;1154;-57
2021/09/29 02:28:50;;;;;;;;;;;;;;;22.33;51.31;95861.06;1051610;28;2298;-55
2021/09/29 02:29:20;;;;;;;;;;;;;;;22.33;50.93;95859.22;1051606;28;1561;-52
2021/09/29 02:29:51;;;;;;;;;;;;;;;22.34;51.32;95865.31;1052832;28;1201;-55
2021/09/29 02:30:22;;;;;;;;;;;;;;;22.34;51.11;95862.66;1052969;28;1217;-55
2021/09/29 02:30:53;;;;;;;;;;;;;;;22.33;51.21;95863.72;1052022;28;1161;-53
2021/09/29 02:31:23;;;;;;;;;;;;;;;22.34;51.24;95862.66;1050785;28;1130;-55
2021/09/29 02:31:53;;;;;;;;;;;;;;;22.33;51.29;95861.88;1050767;28;1037;-58
2021/09/29 02:32:24;;;;;;;;;;;;;;;22.32;51.34;95865.56;1051037;28;1180;-56
2021/09/29 02:32:54;;;;;;;;;;;;;;;22.32;51.56;95865.56;1047756;28;1084;-55
2021/09/29 02:33:24;;;;;;;;;;;;;;;22.32;51.53;95860.28;1052388;28;1130;-56
2021/09/29 02:33:54;;;;;;;;;;;;;;;22.33;51.62;95861.06;1052136;28;2073;-55
2021/09/29 02:34:25;;;;;;;;;;;;;;;22.32;51.17;95865.56;1051621;28;1029;-56
2021/09/29 02:34:55;;;;;;;;;;;;;;;22.33;51.30;95861.88;1050918;28;1151;-57
2021/09/29 02:35:25;;;;;;;;;;;;;;;22.33;51.61;95866.34;1053072;28;1211;-57
2021/09/29 02:35:56;;;;;;;;;;;;;;;22.33;51.58;95869.00;1051889;28;1374;-56
2021/09/29 02:36:26;;;;;;;;;;;;;;;22.32;51.61;95870.84;1049830;28;1317;-57
2021/09/29 02:36:56;;;;;;;;;;;;;;;22.33;51.52;95867.16;1050945;28;1307;-54
2021/09/29 02:37:27;;;;;;;;;;;;;;;22.32;51.38;95865.56;1050588;28;1213;-52
2021/09/29 02:37:57;;;;;;;;;;;;;;;22.32;51.54;95870.84;1048040;28;2491;-54
2021/09/29 02:38:28;;;;;;;;;;;;;;;22.33;51.17;95867.16;1052762;28;1150;-55
2021/09/29 02:38:58;;;;;;;;;;;;;;;22.32;51.26;95865.56;1050997;28;2049;-54
2021/09/29 02:39:28;;;;;;;;;;;;;;;22.32;51.30;95862.94;1050875;28;1114;-51
2021/09/29 02:39:59;;;;;;;;;;;;;;;22.32;51.20;95865.56;1051192;28;878;-54
2021/09/29 02:40:29;;;;;;;;;;;;;;;22.33;51.15;95869.00;1052847;28;1099;-54
2021/09/29 02:40:59;;;;;;;;;;;;;;;22.33;51.30;95872.44;1050768;28;1058;-54
2021/09/29 02:41:30;;;;;;;;;;;;;;;22.33;51.03;95864.50;1053215;28;1201;-55
2021/09/29 02:42:00;;;;;;;;;;;;;;;22.32;51.15;95865.56;1052914;28;1099;-52
2021/09/29 02:42:31;;;;;;;;;;;;;;;22.32;51.00;95860.28;1049939;28;1207;-54
2021/09/29 02:43:01;;;;;;;;;;;;;;;22.31;50.98;95864.00;1051446;28;1165;-53
2021/09/29 02:43:31;;;;;;;;;;;;;;;22.32;51.30;95870.84;1051603;28;2493;-54
2021/09/29 02:44:02;;;;;;;;;;;;;;;22.33;51.22;95869.00;1051408;28;2139;-54
2021/09/29 02:44:32;;;;;;;;;;;;;;;22.33;51.07;95876.94;1050381;28;1208;-55
2021/09/29 02:45:03;;;;;;;;;;;;;;;22.33;51.31;95876.94;1052143;28;1060;-54
2021/09/29 02:45:33;;;;;;;;;;;;;;;22.33;51.16;95883.00;1052180;28;1077;-55
2021/09/29 02:46:04;;;;;;;;;;;;;;;22.32;50.91;95878.78;1051037;28;1127;-54
2021/09/29 02:46:35;;;;;;;;;;;;;;;22.32;51.08;95876.13;1053046;28;970;-56
2021/09/29 02:47:05;;;;;;;;;;;;;;;22.32;51.23;95886.69;1052682;28;1376;-55
2021/09/29 02:47:36;;;;;;;;;;;;;;;22.32;50.88;95881.41;1048981;28;1122;-58
2021/09/29 02:48:06;;;;;;;;;;;;;;;22.33;50.85;95876.94;1049931;28;1667;-57
2021/09/29 02:48:36;;;;;;;;;;;;;;;22.33;50.93;95893.56;1051942;28;1906;-56